sensor_id;sensor_type;location;lat;lon;timestamp;temperature;humidity
55211;DHT22;41082;52.822;6.666;2023-10-13T00:01:34;16.30;99.90
55211;DHT22;41082;52.822;6.666;2023-10-13T00:04:00;16.30;99.90
55211;DHT22;41082;52.822;6.666;2023-10-13T00:06:31;16.40;99.90
55211;DHT22;41082;52.822;6.666;2023-10-13T00:08:56;16.40;99.90
55211;DHT22;41082;52.822;6.666;2023-10-13T00:11:22;16.40;99.90
55211;DHT22;41082;52.822;6.666;2023-10-13T00:13:47;16.50;99.90
55211;DHT22;41082;52.822;6.666;2023-10-13T00:16:21;16.40;99.90
55211;DHT22;41082;52.822;6.666;2023-10-13T00:18:48;16.40;99.90
55211;DHT22;41082;52.822;6.666;2023-10-13T00:21:14;16.50;99.90
55211;DHT22;41082;52.822;6.666;2023-10-13T00:24:00;16.50;99.90
55211;DHT22;41082;52.822;6.666;2023-10-13T00:26:31;16.50;99.90
55211;DHT22;41082;52.822;6.666;2023-10-13T00:29:02;16.50;99.90
55211;DHT22;41082;52.822;6.666;2023-10-13T00:31:44;16.50;99.90
55211;DHT22;41082;52.822;6.666;2023-10-13T00:34:14;16.60;99.90
55211;DHT22;41082;52.822;6.666;2023-10-13T00:36:54;16.60;99.90
55211;DHT22;41082;52.822;6.666;2023-10-13T00:39:40;16.60;99.90
55211;DHT22;41082;52.822;6.666;2023-10-13T00:42:11;16.50;99.90
55211;DHT22;41082;52.822;6.666;2023-10-13T00:44:51;16.60;99.90
55211;DHT22;41082;52.822;6.666;2023-10-13T00:47:20;16.60;99.90
55211;DHT22;41082;52.822;6.666;2023-10-13T00:50:02;16.60;99.90
55211;DHT22;41082;52.822;6.666;2023-10-13T00:52:29;16.60;99.90
55211;DHT22;41082;52.822;6.666;2023-10-13T00:54:56;16.60;99.90
55211;DHT22;41082;52.822;6.666;2023-10-13T00:57:25;16.70;99.90
55211;DHT22;41082;52.822;6.666;2023-10-13T00:59:57;16.60;99.90
55211;DHT22;41082;52.822;6.666;2023-10-13T01:02:23;16.70;99.90
55211;DHT22;41082;52.822;6.666;2023-10-13T01:05:02;16.70;99.90
55211;DHT22;41082;52.822;6.666;2023-10-13T01:07:28;16.60;99.90
55211;DHT22;41082;52.822;6.666;2023-10-13T01:09:54;16.70;99.90
55211;DHT22;41082;52.822;6.666;2023-10-13T01:12:21;16.70;99.90
55211;DHT22;41082;52.822;6.666;2023-10-13T01:14:49;16.70;99.90
55211;DHT22;41082;52.822;6.666;2023-10-13T01:17:15;16.70;99.90
55211;DHT22;41082;52.822;6.666;2023-10-13T01:19:41;16.60;99.90
55211;DHT22;41082;52.822;6.666;2023-10-13T01:22:11;16.70;99.90
55211;DHT22;41082;52.822;6.666;2023-10-13T01:24:37;16.70;99.90
55211;DHT22;41082;52.822;6.666;2023-10-13T01:27:04;16.70;99.90
55211;DHT22;41082;52.822;6.666;2023-10-13T01:29:51;16.70;99.90
55211;DHT22;41082;52.822;6.666;2023-10-13T01:32:22;16.70;99.90
55211;DHT22;41082;52.822;6.666;2023-10-13T01:34:48;16.70;99.90
55211;DHT22;41082;52.822;6.666;2023-10-13T01:37:15;16.70;99.90
55211;DHT22;41082;52.822;6.666;2023-10-13T01:39:44;16.80;99.90
55211;DHT22;41082;52.822;6.666;2023-10-13T01:42:13;16.80;99.90
55211;DHT22;41082;52.822;6.666;2023-10-13T01:44:45;16.80;99.90
55211;DHT22;41082;52.822;6.666;2023-10-13T01:47:10;16.80;99.90
55211;DHT22;41082;52.822;6.666;2023-10-13T01:49:38;16.80;99.90
55211;DHT22;41082;52.822;6.666;2023-10-13T01:52:13;16.80;99.90
55211;DHT22;41082;52.822;6.666;2023-10-13T01:54:46;16.80;99.90
55211;DHT22;41082;52.822;6.666;2023-10-13T01:57:14;16.70;99.90
55211;DHT22;41082;52.822;6.666;2023-10-13T01:59:44;16.70;99.90
55211;DHT22;41082;52.822;6.666;2023-10-13T02:02:12;16.70;99.90
55211;DHT22;41082;52.822;6.666;2023-10-13T02:04:39;16.80;99.90
55211;DHT22;41082;52.822;6.666;2023-10-13T02:07:14;16.70;99.90
55211;DHT22;41082;52.822;6.666;2023-10-13T02:09:41;16.80;99.90
55211;DHT22;41082;52.822;6.666;2023-10-13T02:12:08;16.80;99.90
55211;DHT22;41082;52.822;6.666;2023-10-13T02:14:37;16.70;99.90
55211;DHT22;41082;52.822;6.666;2023-10-13T02:17:04;16.80;99.90
55211;DHT22;41082;52.822;6.666;2023-10-13T02:19:39;16.80;99.90
55211;DHT22;41082;52.822;6.666;2023-10-13T02:22:08;16.80;99.90
55211;DHT22;41082;52.822;6.666;2023-10-13T02:24:35;16.80;99.90
55211;DHT22;41082;52.822;6.666;2023-10-13T02:27:06;16.80;99.90
55211;DHT22;41082;52.822;6.666;2023-10-13T02:29:40;16.70;99.90
55211;DHT22;41082;52.822;6.666;2023-10-13T02:32:06;16.80;99.90
55211;DHT22;41082;52.822;6.666;2023-10-13T02:34:39;16.80;99.90
55211;DHT22;41082;52.822;6.666;2023-10-13T02:37:12;16.80;99.90
55211;DHT22;41082;52.822;6.666;2023-10-13T02:39:39;16.70;99.90
55211;DHT22;41082;52.822;6.666;2023-10-13T02:42:08;16.80;99.90
55211;DHT22;41082;52.822;6.666;2023-10-13T02:44:35;16.80;99.90
55211;DHT22;41082;52.822;6.666;2023-10-13T02:47:03;16.80;99.90
55211;DHT22;41082;52.822;6.666;2023-10-13T02:49:39;16.80;99.90
55211;DHT22;41082;52.822;6.666;2023-10-13T02:52:09;16.80;99.90
55211;DHT22;41082;52.822;6.666;2023-10-13T02:54:42;16.80;99.90
55211;DHT22;41082;52.822;6.666;2023-10-13T02:57:19;16.80;99.90
55211;DHT22;41082;52.822;6.666;2023-10-13T02:59:45;16.80;99.90
55211;DHT22;41082;52.822;6.666;2023-10-13T03:02:22;16.80;99.90
55211;DHT22;41082;52.822;6.666;2023-10-13T03:04:56;16.70;99.90
55211;DHT22;41082;52.822;6.666;2023-10-13T03:07:25;16.80;99.90
55211;DHT22;41082;52.822;6.666;2023-10-13T03:09:55;16.80;99.90
55211;DHT22;41082;52.822;6.666;2023-10-13T03:12:24;16.80;99.90
55211;DHT22;41082;52.822;6.666;2023-10-13T03:14:58;16.70;99.90
55211;DHT22;41082;52.822;6.666;2023-10-13T03:17:44;16.70;99.90
55211;DHT22;41082;52.822;6.666;2023-10-13T03:20:11;16.80;99.90
55211;DHT22;41082;52.822;6.666;2023-10-13T03:22:39;16.80;99.90
55211;DHT22;41082;52.822;6.666;2023-10-13T03:25:05;16.70;99.90
55211;DHT22;41082;52.822;6.666;2023-10-13T03:27:34;16.80;99.90
55211;DHT22;41082;52.822;6.666;2023-10-13T03:30:26;16.80;99.90
55211;DHT22;41082;52.822;6.666;2023-10-13T03:33:10;16.70;99.90
55211;DHT22;41082;52.822;6.666;2023-10-13T03:35:50;16.80;99.90
55211;DHT22;41082;52.822;6.666;2023-10-13T03:38:19;16.80;99.90
55211;DHT22;41082;52.822;6.666;2023-10-13T03:40:47;16.70;99.90
55211;DHT22;41082;52.822;6.666;2023-10-13T03:43:22;16.80;99.90
55211;DHT22;41082;52.822;6.666;2023-10-13T03:45:50;16.80;99.90
55211;DHT22;41082;52.822;6.666;2023-10-13T03:48:26;16.80;99.90
55211;DHT22;41082;52.822;6.666;2023-10-13T03:50:56;16.80;99.90
55211;DHT22;41082;52.822;6.666;2023-10-13T03:53:37;16.80;99.90
55211;DHT22;41082;52.822;6.666;2023-10-13T03:56:23;16.80;99.90
55211;DHT22;41082;52.822;6.666;2023-10-13T03:58:56;16.80;99.90
55211;DHT22;41082;52.822;6.666;2023-10-13T04:01:42;16.70;99.90
55211;DHT22;41082;52.822;6.666;2023-10-13T04:04:24;16.70;99.90
55211;DHT22;41082;52.822;6.666;2023-10-13T04:07:08;16.80;99.90
55211;DHT22;41082;52.822;6.666;2023-10-13T04:09:36;16.80;99.90
55211;DHT22;41082;52.822;6.666;2023-10-13T04:12:04;16.70;99.90
55211;DHT22;41082;52.822;6.666;2023-10-13T04:14:30;16.70;99.90
55211;DHT22;41082;52.822;6.666;2023-10-13T04:17:14;16.70;99.90
55211;DHT22;41082;52.822;6.666;2023-10-13T04:19:41;16.70;99.90
55211;DHT22;41082;52.822;6.666;2023-10-13T04:22:25;16.70;99.90
55211;DHT22;41082;52.822;6.666;2023-10-13T04:25:21;16.70;99.90
55211;DHT22;41082;52.822;6.666;2023-10-13T04:28:08;16.80;99.90
55211;DHT22;41082;52.822;6.666;2023-10-13T04:30:40;16.70;99.90
55211;DHT22;41082;52.822;6.666;2023-10-13T04:33:21;16.70;99.90
55211;DHT22;41082;52.822;6.666;2023-10-13T04:36:13;16.80;99.90
55211;DHT22;41082;52.822;6.666;2023-10-13T04:38:48;16.80;99.90
55211;DHT22;41082;52.822;6.666;2023-10-13T04:41:38;16.80;99.90
55211;DHT22;41082;52.822;6.666;2023-10-13T04:44:11;16.70;99.90
55211;DHT22;41082;52.822;6.666;2023-10-13T04:46:55;16.70;99.90
55211;DHT22;41082;52.822;6.666;2023-10-13T04:49:25;16.80;99.90
55211;DHT22;41082;52.822;6.666;2023-10-13T04:51:56;16.80;99.90
55211;DHT22;41082;52.822;6.666;2023-10-13T04:54:30;16.80;99.90
55211;DHT22;41082;52.822;6.666;2023-10-13T04:57:00;16.70;99.90
55211;DHT22;41082;52.822;6.666;2023-10-13T04:59:48;16.80;99.90
55211;DHT22;41082;52.822;6.666;2023-10-13T05:02:41;16.80;99.90
55211;DHT22;41082;52.822;6.666;2023-10-13T05:05:20;16.70;99.90
55211;DHT22;41082;52.822;6.666;2023-10-13T05:07:49;16.70;99.90
55211;DHT22;41082;52.822;6.666;2023-10-13T05:10:35;16.70;99.90
55211;DHT22;41082;52.822;6.666;2023-10-13T05:13:19;16.70;99.90
55211;DHT22;41082;52.822;6.666;2023-10-13T05:16:04;16.70;99.90
55211;DHT22;41082;52.822;6.666;2023-10-13T05:18:48;16.70;99.90
55211;DHT22;41082;52.822;6.666;2023-10-13T05:21:32;16.70;99.90
55211;DHT22;41082;52.822;6.666;2023-10-13T05:24:16;16.70;99.90
55211;DHT22;41082;52.822;6.666;2023-10-13T05:27:01;16.70;99.90
55211;DHT22;41082;52.822;6.666;2023-10-13T05:29:46;16.70;99.90
55211;DHT22;41082;52.822;6.666;2023-10-13T05:32:31;16.70;99.90
55211;DHT22;41082;52.822;6.666;2023-10-13T05:35:16;16.60;99.90
55211;DHT22;41082;52.822;6.666;2023-10-13T05:38:01;16.60;99.90
55211;DHT22;41082;52.822;6.666;2023-10-13T05:40:57;16.70;99.90
55211;DHT22;41082;52.822;6.666;2023-10-13T05:43:42;16.60;99.90
55211;DHT22;41082;52.822;6.666;2023-10-13T05:46:27;16.60;99.90
55211;DHT22;41082;52.822;6.666;2023-10-13T05:48:54;16.60;99.90
55211;DHT22;41082;52.822;6.666;2023-10-13T05:51:27;16.70;99.90
55211;DHT22;41082;52.822;6.666;2023-10-13T05:53:59;16.60;99.90
55211;DHT22;41082;52.822;6.666;2023-10-13T05:56:47;16.60;99.90
55211;DHT22;41082;52.822;6.666;2023-10-13T05:59:39;16.70;99.90
55211;DHT22;41082;52.822;6.666;2023-10-13T06:02:24;16.70;99.90
55211;DHT22;41082;52.822;6.666;2023-10-13T06:05:12;16.70;99.90
55211;DHT22;41082;52.822;6.666;2023-10-13T06:07:57;16.70;99.90
55211;DHT22;41082;52.822;6.666;2023-10-13T06:10:43;16.70;99.90
55211;DHT22;41082;52.822;6.666;2023-10-13T06:13:28;16.60;99.90
55211;DHT22;41082;52.822;6.666;2023-10-13T06:16:16;16.70;99.90
55211;DHT22;41082;52.822;6.666;2023-10-13T06:19:01;16.60;99.90
55211;DHT22;41082;52.822;6.666;2023-10-13T06:21:46;16.60;99.90
55211;DHT22;41082;52.822;6.666;2023-10-13T06:24:31;16.60;99.90
55211;DHT22;41082;52.822;6.666;2023-10-13T06:27:16;16.70;99.90
55211;DHT22;41082;52.822;6.666;2023-10-13T06:30:01;16.70;99.90
55211;DHT22;41082;52.822;6.666;2023-10-13T06:32:27;16.60;99.90
55211;DHT22;41082;52.822;6.666;2023-10-13T06:34:53;16.70;99.90
55211;DHT22;41082;52.822;6.666;2023-10-13T06:37:24;16.70;99.90
55211;DHT22;41082;52.822;6.666;2023-10-13T06:40:08;16.60;99.90
55211;DHT22;41082;52.822;6.666;2023-10-13T06:42:51;16.60;99.90
55211;DHT22;41082;52.822;6.666;2023-10-13T06:45:19;16.60;99.90
55211;DHT22;41082;52.822;6.666;2023-10-13T06:47:46;16.60;99.90
55211;DHT22;41082;52.822;6.666;2023-10-13T06:50:12;16.60;99.90
55211;DHT22;41082;52.822;6.666;2023-10-13T06:52:45;16.60;99.90
55211;DHT22;41082;52.822;6.666;2023-10-13T06:55:14;16.70;99.90
55211;DHT22;41082;52.822;6.666;2023-10-13T06:57:46;16.70;99.90
55211;DHT22;41082;52.822;6.666;2023-10-13T07:00:12;16.70;99.90
55211;DHT22;41082;52.822;6.666;2023-10-13T07:03:05;16.70;99.90
55211;DHT22;41082;52.822;6.666;2023-10-13T07:05:43;16.80;99.90
55211;DHT22;41082;52.822;6.666;2023-10-13T07:08:10;16.70;99.90
55211;DHT22;41082;52.822;6.666;2023-10-13T07:10:47;16.80;99.90
55211;DHT22;41082;52.822;6.666;2023-10-13T07:13:39;16.80;99.90
55211;DHT22;41082;52.822;6.666;2023-10-13T07:16:08;16.80;99.90
55211;DHT22;41082;52.822;6.666;2023-10-13T07:18:38;16.90;99.90
55211;DHT22;41082;52.822;6.666;2023-10-13T07:21:15;16.90;99.90
55211;DHT22;41082;52.822;6.666;2023-10-13T07:23:41;16.80;99.90
55211;DHT22;41082;52.822;6.666;2023-10-13T07:26:26;16.80;99.90
55211;DHT22;41082;52.822;6.666;2023-10-13T07:28:52;16.80;99.90
55211;DHT22;41082;52.822;6.666;2023-10-13T07:31:17;16.90;99.90
55211;DHT22;41082;52.822;6.666;2023-10-13T07:33:46;16.90;99.90
55211;DHT22;41082;52.822;6.666;2023-10-13T07:36:12;16.90;99.90
55211;DHT22;41082;52.822;6.666;2023-10-13T07:38:45;16.90;99.90
55211;DHT22;41082;52.822;6.666;2023-10-13T07:41:15;16.90;99.90
55211;DHT22;41082;52.822;6.666;2023-10-13T07:43:42;17.00;99.90
55211;DHT22;41082;52.822;6.666;2023-10-13T07:46:11;17.00;99.90
55211;DHT22;41082;52.822;6.666;2023-10-13T07:48:38;16.90;99.90
55211;DHT22;41082;52.822;6.666;2023-10-13T07:51:07;16.90;99.90
55211;DHT22;41082;52.822;6.666;2023-10-13T07:53:52;17.00;99.90
55211;DHT22;41082;52.822;6.666;2023-10-13T07:56:18;16.90;99.90
55211;DHT22;41082;52.822;6.666;2023-10-13T07:58:45;17.00;99.90
55211;DHT22;41082;52.822;6.666;2023-10-13T08:01:26;17.00;99.90
55211;DHT22;41082;52.822;6.666;2023-10-13T08:03:52;17.00;99.90
55211;DHT22;41082;52.822;6.666;2023-10-13T08:06:37;17.00;99.90
55211;DHT22;41082;52.822;6.666;2023-10-13T08:09:03;17.10;99.90
55211;DHT22;41082;52.822;6.666;2023-10-13T08:11:34;17.10;99.90
55211;DHT22;41082;52.822;6.666;2023-10-13T08:14:04;17.20;99.90
55211;DHT22;41082;52.822;6.666;2023-10-13T08:16:40;17.20;99.90
55211;DHT22;41082;52.822;6.666;2023-10-13T08:19:25;17.20;99.90
55211;DHT22;41082;52.822;6.666;2023-10-13T08:22:24;17.30;99.90
55211;DHT22;41082;52.822;6.666;2023-10-13T08:24:51;17.20;99.90
55211;DHT22;41082;52.822;6.666;2023-10-13T08:27:19;17.20;99.90
55211;DHT22;41082;52.822;6.666;2023-10-13T08:29:59;17.30;99.90
55211;DHT22;41082;52.822;6.666;2023-10-13T08:32:44;17.30;99.90
55211;DHT22;41082;52.822;6.666;2023-10-13T08:35:24;17.30;99.90
55211;DHT22;41082;52.822;6.666;2023-10-13T08:37:56;17.30;99.90
55211;DHT22;41082;52.822;6.666;2023-10-13T08:40:27;17.30;99.90
55211;DHT22;41082;52.822;6.666;2023-10-13T08:43:12;17.30;99.90
55211;DHT22;41082;52.822;6.666;2023-10-13T08:45:42;17.40;99.90
55211;DHT22;41082;52.822;6.666;2023-10-13T08:48:10;17.40;99.90
55211;DHT22;41082;52.822;6.666;2023-10-13T08:50:45;17.50;99.90
55211;DHT22;41082;52.822;6.666;2023-10-13T08:53:26;17.50;99.90
55211;DHT22;41082;52.822;6.666;2023-10-13T09:01:36;17.70;99.90
55211;DHT22;41082;52.822;6.666;2023-10-13T09:04:08;17.70;99.90
55211;DHT22;41082;52.822;6.666;2023-10-13T09:06:44;17.80;99.90
55211;DHT22;41082;52.822;6.666;2023-10-13T09:09:12;17.90;99.90
55211;DHT22;41082;52.822;6.666;2023-10-13T09:11:53;17.90;99.90
55211;DHT22;41082;52.822;6.666;2023-10-13T09:14:33;18.00;99.90
55211;DHT22;41082;52.822;6.666;2023-10-13T09:17:05;18.00;99.90
55211;DHT22;41082;52.822;6.666;2023-10-13T09:19:52;18.10;99.90
55211;DHT22;41082;52.822;6.666;2023-10-13T09:22:28;18.10;99.90
55211;DHT22;41082;52.822;6.666;2023-10-13T09:25:02;18.20;99.90
55211;DHT22;41082;52.822;6.666;2023-10-13T09:27:30;18.20;99.90
55211;DHT22;41082;52.822;6.666;2023-10-13T09:30:02;18.30;99.90
55211;DHT22;41082;52.822;6.666;2023-10-13T09:32:47;18.30;99.90
55211;DHT22;41082;52.822;6.666;2023-10-13T09:35:19;18.30;99.90
55211;DHT22;41082;52.822;6.666;2023-10-13T09:37:49;18.30;99.90
55211;DHT22;41082;52.822;6.666;2023-10-13T09:40:18;18.40;99.90
55211;DHT22;41082;52.822;6.666;2023-10-13T09:43:09;18.40;99.90
55211;DHT22;41082;52.822;6.666;2023-10-13T09:45:41;18.40;99.90
55211;DHT22;41082;52.822;6.666;2023-10-13T09:48:38;18.40;99.90
55211;DHT22;41082;52.822;6.666;2023-10-13T09:51:15;18.40;99.90
55211;DHT22;41082;52.822;6.666;2023-10-13T09:54:02;18.40;99.90
55211;DHT22;41082;52.822;6.666;2023-10-13T09:56:43;18.40;99.90
55211;DHT22;41082;52.822;6.666;2023-10-13T09:59:23;18.40;99.90
55211;DHT22;41082;52.822;6.666;2023-10-13T10:01:51;18.40;99.90
55211;DHT22;41082;52.822;6.666;2023-10-13T10:04:24;18.40;99.90
55211;DHT22;41082;52.822;6.666;2023-10-13T10:06:57;18.40;99.90
55211;DHT22;41082;52.822;6.666;2023-10-13T10:09:31;18.50;99.90
55211;DHT22;41082;52.822;6.666;2023-10-13T10:15:15;18.60;99.90
55211;DHT22;41082;52.822;6.666;2023-10-13T10:17:56;18.60;99.90
55211;DHT22;41082;52.822;6.666;2023-10-13T10:20:33;18.60;99.90
55211;DHT22;41082;52.822;6.666;2023-10-13T10:23:07;18.70;99.90
55211;DHT22;41082;52.822;6.666;2023-10-13T10:25:38;18.70;99.90
55211;DHT22;41082;52.822;6.666;2023-10-13T10:28:06;18.70;99.90
55211;DHT22;41082;52.822;6.666;2023-10-13T10:30:35;18.80;99.90
55211;DHT22;41082;52.822;6.666;2023-10-13T10:33:04;18.90;99.90
55211;DHT22;41082;52.822;6.666;2023-10-13T10:35:59;18.90;99.90
55211;DHT22;41082;52.822;6.666;2023-10-13T10:38:25;18.90;99.90
55211;DHT22;41082;52.822;6.666;2023-10-13T10:40:56;18.90;99.90
55211;DHT22;41082;52.822;6.666;2023-10-13T10:43:27;18.90;99.90
55211;DHT22;41082;52.822;6.666;2023-10-13T10:45:55;19.00;99.90
55211;DHT22;41082;52.822;6.666;2023-10-13T10:48:27;19.00;99.90
55211;DHT22;41082;52.822;6.666;2023-10-13T10:50:59;19.10;99.90
55211;DHT22;41082;52.822;6.666;2023-10-13T10:53:33;19.10;99.90
55211;DHT22;41082;52.822;6.666;2023-10-13T10:56:06;19.00;99.90
55211;DHT22;41082;52.822;6.666;2023-10-13T10:58:46;19.10;99.90
55211;DHT22;41082;52.822;6.666;2023-10-13T11:01:11;19.10;99.90
55211;DHT22;41082;52.822;6.666;2023-10-13T11:06:26;19.00;99.90
55211;DHT22;41082;52.822;6.666;2023-10-13T11:09:05;19.00;99.90
55211;DHT22;41082;52.822;6.666;2023-10-13T11:11:45;19.10;99.90
55211;DHT22;41082;52.822;6.666;2023-10-13T11:14:20;19.10;99.90
55211;DHT22;41082;52.822;6.666;2023-10-13T11:16:49;19.10;99.90
55211;DHT22;41082;52.822;6.666;2023-10-13T11:19:35;19.10;99.90
55211;DHT22;41082;52.822;6.666;2023-10-13T11:22:15;19.20;99.90
55211;DHT22;41082;52.822;6.666;2023-10-13T11:25:02;19.20;99.90
55211;DHT22;41082;52.822;6.666;2023-10-13T11:27:38;19.20;99.90
55211;DHT22;41082;52.822;6.666;2023-10-13T11:30:19;19.20;99.90
55211;DHT22;41082;52.822;6.666;2023-10-13T11:33:10;19.20;99.90
55211;DHT22;41082;52.822;6.666;2023-10-13T11:35:40;19.30;99.90
55211;DHT22;41082;52.822;6.666;2023-10-13T11:38:25;19.20;99.90
55211;DHT22;41082;52.822;6.666;2023-10-13T11:41:02;19.20;99.90
55211;DHT22;41082;52.822;6.666;2023-10-13T11:46:09;19.50;99.90
55211;DHT22;41082;52.822;6.666;2023-10-13T11:48:43;19.60;99.90
55211;DHT22;41082;52.822;6.666;2023-10-13T11:51:13;19.70;99.90
55211;DHT22;41082;52.822;6.666;2023-10-13T11:54:00;19.70;99.90
55211;DHT22;41082;52.822;6.666;2023-10-13T11:56:26;19.80;99.90
55211;DHT22;41082;52.822;6.666;2023-10-13T11:58:51;19.80;99.90
55211;DHT22;41082;52.822;6.666;2023-10-13T12:01:18;19.80;99.90
55211;DHT22;41082;52.822;6.666;2023-10-13T12:03:45;19.80;99.90
55211;DHT22;41082;52.822;6.666;2023-10-13T12:06:31;19.80;99.90
55211;DHT22;41082;52.822;6.666;2023-10-13T12:09:04;19.70;99.90
55211;DHT22;41082;52.822;6.666;2023-10-13T12:11:56;19.70;99.90
55211;DHT22;41082;52.822;6.666;2023-10-13T12:14:26;19.70;99.90
55211;DHT22;41082;52.822;6.666;2023-10-13T12:16:57;19.70;99.90
55211;DHT22;41082;52.822;6.666;2023-10-13T12:19:29;19.70;99.90
55211;DHT22;41082;52.822;6.666;2023-10-13T12:21:56;19.70;99.90
55211;DHT22;41082;52.822;6.666;2023-10-13T12:24:23;19.70;99.90
55211;DHT22;41082;52.822;6.666;2023-10-13T12:27:04;19.70;99.90
55211;DHT22;41082;52.822;6.666;2023-10-13T12:29:52;19.70;99.90
55211;DHT22;41082;52.822;6.666;2023-10-13T12:32:21;19.70;99.90
55211;DHT22;41082;52.822;6.666;2023-10-13T12:34:56;19.60;99.90
55211;DHT22;41082;52.822;6.666;2023-10-13T12:37:26;19.60;99.90
55211;DHT22;41082;52.822;6.666;2023-10-13T12:40:27;19.60;99.90
55211;DHT22;41082;52.822;6.666;2023-10-13T12:43:11;19.50;99.90
55211;DHT22;41082;52.822;6.666;2023-10-13T12:45:55;19.60;99.90
55211;DHT22;41082;52.822;6.666;2023-10-13T12:48:40;19.60;99.90
55211;DHT22;41082;52.822;6.666;2023-10-13T12:51:23;19.60;99.90
55211;DHT22;41082;52.822;6.666;2023-10-13T12:54:00;19.60;99.90
55211;DHT22;41082;52.822;6.666;2023-10-13T12:56:39;19.60;99.90
55211;DHT22;41082;52.822;6.666;2023-10-13T12:59:08;19.70;99.90
55211;DHT22;41082;52.822;6.666;2023-10-13T13:01:35;19.70;99.90
55211;DHT22;41082;52.822;6.666;2023-10-13T13:04:00;19.70;99.90
55211;DHT22;41082;52.822;6.666;2023-10-13T13:06:29;19.80;99.90
55211;DHT22;41082;52.822;6.666;2023-10-13T13:08:57;19.80;99.90
55211;DHT22;41082;52.822;6.666;2023-10-13T13:11:24;19.80;99.90
55211;DHT22;41082;52.822;6.666;2023-10-13T13:13:50;19.80;99.90
55211;DHT22;41082;52.822;6.666;2023-10-13T13:16:18;19.70;99.90
55211;DHT22;41082;52.822;6.666;2023-10-13T13:18:47;19.70;99.90
55211;DHT22;41082;52.822;6.666;2023-10-13T13:21:13;19.80;99.90
55211;DHT22;41082;52.822;6.666;2023-10-13T13:23:48;19.80;99.90
55211;DHT22;41082;52.822;6.666;2023-10-13T13:26:14;19.80;99.90
55211;DHT22;41082;52.822;6.666;2023-10-13T13:28:44;19.80;99.90
55211;DHT22;41082;52.822;6.666;2023-10-13T13:31:11;19.90;99.90
55211;DHT22;41082;52.822;6.666;2023-10-13T13:33:41;19.90;99.90
55211;DHT22;41082;52.822;6.666;2023-10-13T13:36:09;19.90;99.90
55211;DHT22;41082;52.822;6.666;2023-10-13T13:38:42;19.90;99.90
55211;DHT22;41082;52.822;6.666;2023-10-13T13:41:14;19.90;99.90
55211;DHT22;41082;52.822;6.666;2023-10-13T13:43:45;19.90;99.90
55211;DHT22;41082;52.822;6.666;2023-10-13T13:46:24;19.90;99.90
55211;DHT22;41082;52.822;6.666;2023-10-13T13:48:53;19.90;99.90
55211;DHT22;41082;52.822;6.666;2023-10-13T13:51:29;19.80;99.90
55211;DHT22;41082;52.822;6.666;2023-10-13T13:53:57;19.70;99.90
55211;DHT22;41082;52.822;6.666;2023-10-13T13:56:24;19.60;99.90
55211;DHT22;41082;52.822;6.666;2023-10-13T13:58:54;19.50;99.90
55211;DHT22;41082;52.822;6.666;2023-10-13T14:01:21;19.50;99.90
55211;DHT22;41082;52.822;6.666;2023-10-13T14:03:52;19.40;99.90
55211;DHT22;41082;52.822;6.666;2023-10-13T14:06:23;19.40;99.90
55211;DHT22;41082;52.822;6.666;2023-10-13T14:08:53;19.30;99.90
55211;DHT22;41082;52.822;6.666;2023-10-13T14:11:24;19.30;99.90
55211;DHT22;41082;52.822;6.666;2023-10-13T14:14:06;19.20;99.90
55211;DHT22;41082;52.822;6.666;2023-10-13T14:16:39;19.20;99.90
55211;DHT22;41082;52.822;6.666;2023-10-13T14:19:10;19.20;99.90
55211;DHT22;41082;52.822;6.666;2023-10-13T14:21:36;19.20;99.90
55211;DHT22;41082;52.822;6.666;2023-10-13T14:24:02;19.20;99.90
55211;DHT22;41082;52.822;6.666;2023-10-13T14:26:28;19.10;99.90
55211;DHT22;41082;52.822;6.666;2023-10-13T14:28:55;19.10;99.90
55211;DHT22;41082;52.822;6.666;2023-10-13T14:31:31;19.10;99.90
55211;DHT22;41082;52.822;6.666;2023-10-13T14:33:57;19.20;99.90
55211;DHT22;41082;52.822;6.666;2023-10-13T14:36:24;19.10;99.90
55211;DHT22;41082;52.822;6.666;2023-10-13T14:38:54;19.10;99.90
55211;DHT22;41082;52.822;6.666;2023-10-13T14:41:20;19.10;99.90
55211;DHT22;41082;52.822;6.666;2023-10-13T14:43:46;19.10;99.90
55211;DHT22;41082;52.822;6.666;2023-10-13T14:46:19;19.10;99.90
55211;DHT22;41082;52.822;6.666;2023-10-13T14:48:54;19.00;99.90
55211;DHT22;41082;52.822;6.666;2023-10-13T14:51:20;19.10;99.90
55211;DHT22;41082;52.822;6.666;2023-10-13T14:53:46;19.00;99.90
55211;DHT22;41082;52.822;6.666;2023-10-13T14:56:13;19.00;99.90
55211;DHT22;41082;52.822;6.666;2023-10-13T14:58:40;19.00;99.90
55211;DHT22;41082;52.822;6.666;2023-10-13T15:01:12;19.00;99.90
55211;DHT22;41082;52.822;6.666;2023-10-13T15:03:41;18.90;99.90
55211;DHT22;41082;52.822;6.666;2023-10-13T15:06:07;18.90;99.90
55211;DHT22;41082;52.822;6.666;2023-10-13T15:08:33;18.90;99.90
55211;DHT22;41082;52.822;6.666;2023-10-13T15:11:08;18.80;99.90
55211;DHT22;41082;52.822;6.666;2023-10-13T15:13:41;18.80;99.90
55211;DHT22;41082;52.822;6.666;2023-10-13T15:16:14;18.80;99.90
55211;DHT22;41082;52.822;6.666;2023-10-13T15:18:46;18.70;99.90
55211;DHT22;41082;52.822;6.666;2023-10-13T15:21:23;18.60;99.90
55211;DHT22;41082;52.822;6.666;2023-10-13T15:23:54;18.60;99.90
55211;DHT22;41082;52.822;6.666;2023-10-13T15:26:25;18.60;99.90
55211;DHT22;41082;52.822;6.666;2023-10-13T15:28:51;18.50;99.90
55211;DHT22;41082;52.822;6.666;2023-10-13T15:31:21;18.50;99.90
55211;DHT22;41082;52.822;6.666;2023-10-13T15:34:03;18.40;99.90
55211;DHT22;41082;52.822;6.666;2023-10-13T15:36:44;18.40;99.90
55211;DHT22;41082;52.822;6.666;2023-10-13T15:39:12;18.30;99.90
55211;DHT22;41082;52.822;6.666;2023-10-13T15:41:41;18.30;99.90
55211;DHT22;41082;52.822;6.666;2023-10-13T15:44:11;18.30;99.90
55211;DHT22;41082;52.822;6.666;2023-10-13T15:46:39;18.30;99.90
55211;DHT22;41082;52.822;6.666;2023-10-13T15:49:05;18.30;99.90
55211;DHT22;41082;52.822;6.666;2023-10-13T15:51:33;18.30;99.90
55211;DHT22;41082;52.822;6.666;2023-10-13T15:54:02;18.30;99.90
55211;DHT22;41082;52.822;6.666;2023-10-13T15:56:28;18.30;99.90
55211;DHT22;41082;52.822;6.666;2023-10-13T15:58:58;18.30;99.90
55211;DHT22;41082;52.822;6.666;2023-10-13T16:01:26;18.20;99.90
55211;DHT22;41082;52.822;6.666;2023-10-13T16:03:53;18.20;99.90
55211;DHT22;41082;52.822;6.666;2023-10-13T16:06:19;18.20;99.90
55211;DHT22;41082;52.822;6.666;2023-10-13T16:08:45;18.10;99.90
55211;DHT22;41082;52.822;6.666;2023-10-13T16:11:12;18.10;99.90
55211;DHT22;41082;52.822;6.666;2023-10-13T16:13:45;18.10;99.90
55211;DHT22;41082;52.822;6.666;2023-10-13T16:16:15;18.10;99.90
55211;DHT22;41082;52.822;6.666;2023-10-13T16:18:42;18.10;99.90
55211;DHT22;41082;52.822;6.666;2023-10-13T16:21:10;18.10;99.90
55211;DHT22;41082;52.822;6.666;2023-10-13T16:23:38;18.10;99.90
55211;DHT22;41082;52.822;6.666;2023-10-13T16:26:05;18.10;99.90